Hattiesburg South, Mississippi
Current Conditions -  °F | °C
As of 3:53 PM on Thursday 23 Oct 2014 (Local Time) from KHBG Reporting Station
Clear Clear  
Wind Chill: 73°   Ceiling: Unl
Heat Index: 73°   Visibility: 10mi
Dew Point: 43°   Wind: 9mph
Humidity: 34%   Direction: 20°NNE
Pressure: 30.06"   Gusts: NA
Location:  31.1996°N, 89.2694°W
Report Text: KHBG 232053Z AUTO 02008KT 10SM CLR 23/06 A3006 RMK AO2 SLP179 T02280061 56017
Loading
Personal Weather Stations






























Interactive Weather Map
Tropical Storm Tracking
New forecast layout! Learn more

10-Day Weather Forecast

Advertisements
Track Severe Weather on mobile